createdAt,value
2022-10-28T00:01:24.543Z,8.50
2022-10-28T00:03:56.753Z,8.85
2022-10-28T00:06:30.069Z,8.70
2022-10-28T00:08:57.983Z,8.50
2022-10-28T00:11:34.975Z,8.80
2022-10-28T00:14:04.226Z,9.15
2022-10-28T00:16:33.211Z,9.27
2022-10-28T00:19:01.336Z,9.07
2022-10-28T00:21:31.236Z,8.55
2022-10-28T00:23:58.062Z,8.82
2022-10-28T00:26:27.160Z,8.90
2022-10-28T00:29:04.600Z,7.95
2022-10-28T00:31:32.486Z,8.07
2022-10-28T00:34:01.255Z,8.18
2022-10-28T00:36:37.486Z,8.40
2022-10-28T00:39:11.554Z,8.70
2022-10-28T00:41:41.171Z,8.07
2022-10-28T00:44:47.771Z,8.52
2022-10-28T00:47:36.333Z,7.97
2022-10-28T00:50:34.441Z,9.45
2022-10-28T00:53:10.059Z,8.27
2022-10-28T00:55:39.594Z,8.50
2022-10-28T00:58:08.510Z,8.40
2022-10-28T01:00:38.029Z,7.55
2022-10-28T01:03:04.971Z,8.43
2022-10-28T01:05:34.352Z,8.95
2022-10-28T01:08:03.331Z,8.18
2022-10-28T01:10:45.694Z,7.60
2022-10-28T01:13:43.218Z,8.65
2022-10-28T01:16:38.470Z,8.13
2022-10-28T01:19:19.696Z,7.80
2022-10-28T01:22:37.543Z,8.68
2022-10-28T01:25:28.642Z,8.50
2022-10-28T01:28:12.411Z,8.45
2022-10-28T01:31:13.400Z,8.40
2022-10-28T01:33:53.517Z,8.50
2022-10-28T01:36:35.981Z,9.20
2022-10-28T01:39:27.543Z,7.93
2022-10-28T01:42:19.262Z,8.48
2022-10-28T01:45:00.241Z,7.68
2022-10-28T01:47:31.545Z,8.43
2022-10-28T01:50:05.023Z,8.82
2022-10-28T01:52:32.355Z,7.90
2022-10-28T01:55:12.800Z,8.45
2022-10-28T01:57:43.916Z,8.38
2022-10-28T02:00:13.761Z,8.18
2022-10-28T02:02:42.762Z,8.55
2022-10-28T02:05:40.760Z,8.32
2022-10-28T02:08:19.924Z,8.13
2022-10-28T02:11:28.133Z,8.15
2022-10-28T02:14:03.967Z,8.13
2022-10-28T02:16:48.053Z,8.18
2022-10-28T02:19:17.833Z,8.52
2022-10-28T02:21:59.400Z,8.43
2022-10-28T02:24:41.811Z,8.63
2022-10-28T02:27:18.174Z,8.57
2022-10-28T02:30:02.260Z,8.43
2022-10-28T02:32:33.488Z,8.40
2022-10-28T02:35:03.902Z,8.45
2022-10-28T02:37:33.714Z,7.78
2022-10-28T02:40:05.696Z,8.27
2022-10-28T02:42:40.940Z,7.93
2022-10-28T02:45:31.463Z,8.23
2022-10-28T02:48:04.629Z,8.18
2022-10-28T02:50:36.271Z,7.57
2022-10-28T02:53:11.703Z,7.95
2022-10-28T02:55:42.620Z,7.80
2022-10-28T02:58:10.612Z,7.38
2022-10-28T03:00:37.277Z,7.07
2022-10-28T03:03:06.395Z,7.32
2022-10-28T03:05:33.061Z,7.50
2022-10-28T03:08:01.887Z,7.30
2022-10-28T03:10:28.650Z,7.57
2022-10-28T03:12:55.228Z,7.50
2022-10-28T03:15:21.851Z,7.10
2022-10-28T03:17:48.832Z,7.85
2022-10-28T03:20:15.660Z,7.35
2022-10-28T03:22:45.479Z,6.85
2022-10-28T03:25:13.091Z,7.13
2022-10-28T03:27:41.399Z,6.75
2022-10-28T03:30:08.510Z,7.55
2022-10-28T03:32:37.735Z,7.07
2022-10-28T03:35:04.875Z,8.80
2022-10-28T03:37:31.491Z,7.03
2022-10-28T03:39:59.565Z,6.43
2022-10-28T03:42:26.874Z,6.82
2022-10-28T03:44:53.587Z,6.53
2022-10-28T03:47:23.001Z,6.68
2022-10-28T03:49:49.644Z,6.32
2022-10-28T03:52:16.730Z,6.70
2022-10-28T03:54:43.375Z,6.63
2022-10-28T03:57:10.012Z,7.03
2022-10-28T03:59:36.601Z,6.72
2022-10-28T04:02:03.371Z,6.40
2022-10-28T04:04:30.918Z,6.45
2022-10-28T04:06:57.831Z,5.85
2022-10-28T04:09:24.485Z,5.82
2022-10-28T04:11:51.453Z,6.43
2022-10-28T04:14:20.679Z,5.95
2022-10-28T04:16:47.494Z,5.65
2022-10-28T04:19:14.228Z,5.65
2022-10-28T04:21:43.156Z,5.70
2022-10-28T04:24:09.909Z,6.30
2022-10-28T04:26:42.133Z,7.10
2022-10-28T04:29:08.847Z,6.20
2022-10-28T04:31:35.465Z,6.57
2022-10-28T04:34:02.120Z,6.75
2022-10-28T04:36:28.832Z,5.90
2022-10-28T04:38:55.959Z,6.70
2022-10-28T04:41:22.732Z,6.70
2022-10-28T04:43:52.408Z,6.53
2022-10-28T04:46:19.049Z,6.15
2022-10-28T04:48:47.981Z,5.70
2022-10-28T04:51:15.154Z,6.20
2022-10-28T04:53:42.114Z,6.78
2022-10-28T04:56:09.432Z,5.28
2022-10-28T04:58:36.675Z,6.18
2022-10-28T05:01:10.588Z,5.43
2022-10-28T05:03:37.479Z,5.50
2022-10-28T05:06:06.983Z,5.13
2022-10-28T05:08:33.739Z,5.70
2022-10-28T05:11:02.912Z,5.47
2022-10-28T05:13:29.463Z,4.95
2022-10-28T05:15:56.234Z,5.10
2022-10-28T05:18:24.999Z,5.63
2022-10-28T05:20:55.107Z,6.00
2022-10-28T05:23:25.773Z,5.70
2022-10-28T05:25:55.562Z,5.53
2022-10-28T05:28:22.298Z,5.35
2022-10-28T05:30:48.977Z,5.30
2022-10-28T05:33:15.600Z,5.00
2022-10-28T05:35:42.332Z,5.40
2022-10-28T05:38:11.481Z,5.68
2022-10-28T05:40:38.223Z,5.20
2022-10-28T05:43:05.572Z,4.90
2022-10-28T05:45:32.558Z,5.35
2022-10-28T05:47:59.184Z,4.80
2022-10-28T05:50:26.518Z,5.10
2022-10-28T05:52:55.556Z,5.97
2022-10-28T05:55:24.653Z,4.95
2022-10-28T05:57:53.029Z,5.05
2022-10-28T06:00:23.037Z,4.90
2022-10-28T06:02:50.017Z,4.78
2022-10-28T06:05:16.676Z,5.05
2022-10-28T06:07:43.730Z,4.70
2022-10-28T06:10:11.693Z,5.70
2022-10-28T06:12:36.994Z,5.20
2022-10-28T06:15:04.169Z,5.05
2022-10-28T06:17:30.857Z,5.43
2022-10-28T06:19:57.468Z,5.10
2022-10-28T06:22:24.183Z,5.00
2022-10-28T06:24:53.793Z,5.07
2022-10-28T06:27:20.392Z,5.53
2022-10-28T06:29:47.133Z,5.07
2022-10-28T06:32:16.029Z,5.38
2022-10-28T06:34:42.632Z,4.93
2022-10-28T06:37:09.513Z,5.53
2022-10-28T06:39:38.465Z,5.18
2022-10-28T06:42:05.307Z,5.22
2022-10-28T06:44:34.162Z,5.05
2022-10-28T06:47:02.255Z,5.15
2022-10-28T06:49:29.810Z,5.22
2022-10-28T06:51:56.464Z,5.03
2022-10-28T06:54:23.501Z,5.32
2022-10-28T06:56:52.394Z,5.32
2022-10-28T06:59:19.023Z,5.15
2022-10-28T07:01:45.683Z,5.85
2022-10-28T07:04:15.337Z,5.50
2022-10-28T07:06:42.213Z,5.15
2022-10-28T07:09:13.139Z,5.68
2022-10-28T07:11:40.959Z,5.03
2022-10-28T07:14:10.559Z,5.00
2022-10-28T07:16:39.728Z,5.68
2022-10-28T07:19:08.944Z,5.78
2022-10-28T07:21:36.067Z,5.50
2022-10-28T07:24:03.633Z,5.68
2022-10-28T07:26:30.299Z,5.82
2022-10-28T07:28:59.837Z,5.75
2022-10-28T07:31:27.857Z,5.40
2022-10-28T07:33:55.695Z,5.35
2022-10-28T07:36:22.718Z,5.38
2022-10-28T07:38:52.429Z,5.90
2022-10-28T07:41:24.771Z,5.68
2022-10-28T07:43:51.964Z,5.38
2022-10-28T07:46:22.233Z,5.75
2022-10-28T07:48:49.244Z,5.38
2022-10-28T07:51:16.643Z,6.60
2022-10-28T07:53:43.439Z,5.40
2022-10-28T07:56:14.888Z,6.00
2022-10-28T07:58:44.354Z,5.85
2022-10-28T08:01:13.428Z,6.00
2022-10-28T08:03:40.676Z,5.18
2022-10-28T08:06:14.000Z,5.68
2022-10-28T08:08:40.612Z,5.57
2022-10-28T08:11:16.525Z,5.30
2022-10-28T08:13:48.384Z,5.88
2022-10-28T08:16:15.219Z,6.03
2022-10-28T08:18:42.125Z,6.45
2022-10-28T08:21:11.329Z,5.65
2022-10-28T08:23:38.517Z,5.20
2022-10-28T08:26:07.468Z,5.43
2022-10-28T08:28:34.379Z,5.25
2022-10-28T08:31:09.101Z,5.70
2022-10-28T08:33:38.312Z,6.05
2022-10-28T08:36:07.747Z,4.93
2022-10-28T08:38:34.382Z,5.43
2022-10-28T08:41:28.900Z,5.07
2022-10-28T08:44:26.673Z,5.30
2022-10-28T08:47:21.696Z,5.53
2022-10-28T08:49:54.738Z,4.85
2022-10-28T08:52:29.943Z,5.47
2022-10-28T08:55:31.831Z,4.90
2022-10-28T08:58:09.528Z,4.65
2022-10-28T09:00:36.973Z,5.07
2022-10-28T09:03:43.495Z,5.15
2022-10-28T09:06:11.053Z,4.20
2022-10-28T09:08:41.676Z,4.88
2022-10-28T09:11:11.115Z,4.78
2022-10-28T09:14:14.771Z,5.53
2022-10-28T09:16:49.985Z,4.65
2022-10-28T09:19:22.485Z,4.82
2022-10-28T09:22:01.752Z,4.35
2022-10-28T09:24:51.120Z,4.68
2022-10-28T09:27:25.021Z,4.57
2022-10-28T09:30:23.644Z,4.78
2022-10-28T09:33:14.342Z,5.05
2022-10-28T09:35:44.536Z,4.30
2022-10-28T09:38:16.593Z,4.22
2022-10-28T09:40:51.123Z,4.00
2022-10-28T09:43:24.936Z,4.40
2022-10-28T09:46:00.444Z,5.07
2022-10-28T09:48:34.089Z,4.93
2022-10-28T09:51:01.237Z,4.00
2022-10-28T09:53:48.848Z,4.53
2022-10-28T09:56:18.118Z,4.60
2022-10-28T09:58:47.804Z,4.88
2022-10-28T10:01:17.097Z,4.97
2022-10-28T10:03:45.408Z,3.88
2022-10-28T10:06:26.208Z,4.15
2022-10-28T10:08:56.303Z,4.93
2022-10-28T10:11:32.442Z,4.50
2022-10-28T10:14:03.324Z,4.38
2022-10-28T10:16:51.961Z,4.35
2022-10-28T10:19:18.766Z,3.90
2022-10-28T10:21:50.476Z,3.72
2022-10-28T10:24:31.494Z,3.67
2022-10-28T10:27:04.183Z,3.67
2022-10-28T10:29:31.775Z,3.60
2022-10-28T10:32:16.597Z,3.88
2022-10-28T10:34:57.370Z,4.20
2022-10-28T10:37:24.458Z,3.75
2022-10-28T10:40:00.168Z,3.83
2022-10-28T10:42:28.140Z,3.42
2022-10-28T10:45:00.987Z,3.90
2022-10-28T10:47:30.197Z,3.75
2022-10-28T10:50:22.551Z,3.75
2022-10-28T10:52:58.058Z,4.03
2022-10-28T10:55:27.756Z,4.35
2022-10-28T10:57:55.391Z,4.47
2022-10-28T11:00:25.683Z,3.03
2022-10-28T11:02:55.948Z,3.58
2022-10-28T11:05:27.008Z,4.28
2022-10-28T11:07:58.917Z,3.45
2022-10-28T11:10:29.605Z,3.10
2022-10-28T11:12:58.403Z,3.65
2022-10-28T11:15:28.827Z,3.63
2022-10-28T11:18:21.332Z,3.50
2022-10-28T11:21:10.050Z,3.40
2022-10-28T11:23:42.996Z,3.25
2022-10-28T11:26:14.168Z,3.58
2022-10-28T11:28:43.887Z,3.95
2022-10-28T11:31:30.784Z,3.25
2022-10-28T11:34:06.571Z,3.58
2022-10-28T11:36:54.949Z,3.20
2022-10-28T11:39:26.672Z,3.83
2022-10-28T11:42:19.635Z,4.18
2022-10-28T11:44:56.078Z,4.25
2022-10-28T11:47:44.314Z,2.92
2022-10-28T11:50:18.365Z,3.58
2022-10-28T11:52:57.259Z,4.00
2022-10-28T11:55:42.644Z,3.25
2022-10-28T11:58:37.551Z,3.33
2022-10-28T12:01:12.588Z,3.00
2022-10-28T12:03:51.431Z,3.20
2022-10-28T12:06:47.076Z,3.17
2022-10-28T12:09:25.884Z,3.17
2022-10-28T12:12:13.805Z,3.35
2022-10-28T12:14:46.860Z,3.20
2022-10-28T12:17:35.412Z,3.20
2022-10-28T12:20:11.735Z,3.45
2022-10-28T12:22:51.952Z,3.53
2022-10-28T12:25:25.564Z,4.28
2022-10-28T12:27:57.409Z,4.07
2022-10-28T12:30:34.477Z,3.13
2022-10-28T12:33:16.805Z,3.40
2022-10-28T12:35:58.474Z,3.45
2022-10-28T12:38:43.074Z,3.38
2022-10-28T12:41:21.235Z,4.10
2022-10-28T12:43:56.126Z,3.72
2022-10-28T12:46:39.055Z,3.45
2022-10-28T12:49:16.571Z,3.60
2022-10-28T12:51:44.043Z,3.45
2022-10-28T12:54:21.752Z,3.78
2022-10-28T12:56:53.411Z,3.25
2022-10-28T12:59:27.276Z,3.03
2022-10-28T13:01:54.499Z,3.10
2022-10-28T13:04:21.333Z,3.17
2022-10-28T13:07:29.506Z,3.60
2022-10-28T13:10:11.331Z,3.83
2022-10-28T13:12:59.315Z,3.40
2022-10-28T13:15:52.631Z,3.50
2022-10-28T13:18:44.314Z,3.40
2022-10-28T13:21:46.924Z,3.97
2022-10-28T13:24:24.902Z,4.25
2022-10-28T13:26:52.112Z,4.05
2022-10-28T13:29:32.557Z,3.47
2022-10-28T13:31:59.483Z,4.05
2022-10-28T13:34:36.093Z,3.80
2022-10-28T13:37:18.099Z,3.83
2022-10-28T13:39:47.468Z,3.53
2022-10-28T13:42:14.848Z,3.67
2022-10-28T13:44:58.826Z,3.55
2022-10-28T13:47:32.103Z,3.45
2022-10-28T13:50:11.498Z,3.47
2022-10-28T13:53:22.590Z,3.88
2022-10-28T13:55:49.192Z,3.42
2022-10-28T13:58:22.957Z,3.72
2022-10-28T14:00:53.720Z,3.72
2022-10-28T14:03:27.999Z,3.67
2022-10-28T14:05:58.211Z,3.50
2022-10-28T14:08:38.350Z,2.97
2022-10-28T14:11:15.255Z,3.40
2022-10-28T14:13:53.095Z,3.70
2022-10-28T14:16:23.092Z,3.47
2022-10-28T14:18:57.738Z,3.42
2022-10-28T14:21:27.062Z,3.50
2022-10-28T14:24:32.160Z,3.40
2022-10-28T14:27:08.288Z,3.55
2022-10-28T14:29:57.824Z,3.10
2022-10-28T14:32:35.955Z,5.10
2022-10-28T14:35:17.874Z,4.28
2022-10-28T14:38:09.319Z,3.58
2022-10-28T14:40:38.898Z,4.07
2022-10-28T14:43:38.710Z,3.63
2022-10-28T14:46:14.274Z,3.35
2022-10-28T14:48:46.128Z,3.88
2022-10-28T14:51:17.327Z,3.30
2022-10-28T14:53:45.744Z,4.70
2022-10-28T14:56:20.500Z,3.88
2022-10-28T14:58:47.375Z,3.45
2022-10-28T15:01:19.475Z,3.45
2022-10-28T15:03:51.037Z,3.30
2022-10-28T15:06:28.749Z,4.28
2022-10-28T15:08:57.002Z,3.83
2022-10-28T15:11:24.060Z,3.25
2022-10-28T15:13:54.159Z,4.28
2022-10-28T15:16:25.547Z,3.22
2022-10-28T15:18:54.047Z,3.50
2022-10-28T15:21:22.824Z,3.97
2022-10-28T15:24:02.729Z,3.72
2022-10-28T15:26:30.111Z,3.22
2022-10-28T15:28:57.007Z,3.47
2022-10-28T15:31:23.978Z,3.88
2022-10-28T15:33:50.611Z,3.92
2022-10-28T15:36:22.261Z,3.60
2022-10-28T15:38:54.111Z,3.30
2022-10-28T15:41:26.414Z,3.30
2022-10-28T15:44:01.200Z,3.78
2022-10-28T15:46:31.694Z,4.20
2022-10-28T15:49:01.072Z,4.13
2022-10-28T15:51:28.313Z,3.83
2022-10-28T15:54:09.888Z,4.72
2022-10-28T15:56:58.138Z,4.47
2022-10-28T15:59:25.633Z,4.78
2022-10-28T16:01:56.209Z,4.55
2022-10-28T16:04:23.821Z,4.55
2022-10-28T16:06:53.770Z,4.75
2022-10-28T16:09:34.618Z,4.18
2022-10-28T16:12:04.783Z,4.10
2022-10-28T16:14:31.568Z,4.63
2022-10-28T16:17:24.931Z,4.40
2022-10-28T16:19:56.893Z,5.28
2022-10-28T16:22:28.303Z,3.92
2022-10-28T16:24:55.711Z,4.35
2022-10-28T16:27:28.613Z,4.15
2022-10-28T16:29:55.551Z,3.80
2022-10-28T16:32:34.903Z,4.82
2022-10-28T16:35:02.494Z,5.07
2022-10-28T16:37:31.603Z,4.13
2022-10-28T16:39:58.245Z,4.43
2022-10-28T16:42:25.851Z,4.55
2022-10-28T16:44:52.687Z,4.22
2022-10-28T16:47:21.093Z,5.72
2022-10-28T16:49:54.331Z,4.35
2022-10-28T16:52:28.988Z,5.40
2022-10-28T16:54:56.564Z,4.88
2022-10-28T16:57:26.641Z,5.13
2022-10-28T16:59:53.773Z,4.07
2022-10-28T17:02:28.439Z,4.80
2022-10-28T17:04:58.579Z,4.75
2022-10-28T17:07:26.045Z,5.38
2022-10-28T17:09:52.861Z,5.28
2022-10-28T17:12:21.853Z,4.80
2022-10-28T17:14:49.013Z,4.40
2022-10-28T17:17:16.074Z,4.95
2022-10-28T17:19:46.586Z,4.95
2022-10-28T17:22:13.989Z,5.75
2022-10-28T17:24:41.014Z,5.68
2022-10-28T17:27:08.159Z,5.45
2022-10-28T17:29:35.065Z,5.85
2022-10-28T17:32:04.436Z,5.50
2022-10-28T17:34:31.696Z,6.28
2022-10-28T17:37:00.470Z,5.50
2022-10-28T17:39:29.513Z,5.78
2022-10-28T17:41:56.683Z,5.72
2022-10-28T17:44:23.374Z,6.03
2022-10-28T17:46:52.681Z,5.90
2022-10-28T17:49:21.753Z,6.03
2022-10-28T17:51:48.332Z,5.80
2022-10-28T17:54:19.786Z,5.45
2022-10-28T17:56:47.859Z,5.43
2022-10-28T17:59:18.840Z,5.80
2022-10-28T18:01:48.604Z,5.65
2022-10-28T18:04:15.334Z,6.03
2022-10-28T18:06:41.968Z,6.45
2022-10-28T18:09:12.507Z,6.28
2022-10-28T18:11:40.203Z,5.53
2022-10-28T18:14:09.021Z,6.13
2022-10-28T18:16:37.005Z,5.95
2022-10-28T18:19:07.250Z,5.95
2022-10-28T18:21:34.468Z,6.30
2022-10-28T18:24:06.243Z,6.15
2022-10-28T18:26:35.252Z,6.90
2022-10-28T18:29:05.912Z,6.30
2022-10-28T18:31:33.706Z,6.18
2022-10-28T18:34:01.140Z,6.60
2022-10-28T18:36:34.486Z,6.95
2022-10-28T18:39:06.881Z,6.75
2022-10-28T18:41:36.257Z,6.25
2022-10-28T18:44:04.946Z,6.45
2022-10-28T18:46:35.411Z,6.88
2022-10-28T18:49:02.891Z,7.13
2022-10-28T18:51:29.717Z,6.97
2022-10-28T18:53:56.897Z,6.60
2022-10-28T18:56:29.352Z,6.70
2022-10-28T18:58:57.522Z,6.35
2022-10-28T19:01:27.002Z,6.15
2022-10-28T19:03:58.779Z,6.68
2022-10-28T19:06:27.693Z,6.50
2022-10-28T19:08:56.593Z,6.10
2022-10-28T19:11:30.427Z,6.13
2022-10-28T19:14:03.258Z,6.35
2022-10-28T19:16:34.595Z,5.88
2022-10-28T19:19:04.235Z,6.43
2022-10-28T19:21:31.759Z,6.75
2022-10-28T19:23:58.730Z,6.32
2022-10-28T19:26:25.394Z,6.22
2022-10-28T19:28:52.429Z,6.80
2022-10-28T19:31:21.405Z,6.05
2022-10-28T19:33:49.480Z,6.55
2022-10-28T19:36:21.689Z,6.93
2022-10-28T19:38:50.091Z,6.63
2022-10-28T19:41:22.336Z,6.60
2022-10-28T19:43:56.795Z,6.95
2022-10-28T19:46:29.422Z,6.72
2022-10-28T19:48:59.556Z,6.63
2022-10-28T19:54:13.586Z,6.50
2022-10-28T19:56:40.370Z,7.18
2022-10-28T19:59:07.394Z,6.70
2022-10-28T20:01:39.088Z,6.72
2022-10-28T20:04:07.030Z,7.47
2022-10-28T20:06:36.237Z,6.35
2022-10-28T20:09:05.778Z,7.05
2022-10-28T20:11:38.017Z,7.93
2022-10-28T20:14:11.916Z,7.32
2022-10-28T20:16:42.962Z,7.50
2022-10-28T20:19:12.097Z,8.10
2022-10-28T20:21:42.011Z,7.30
2022-10-28T20:24:08.887Z,7.32
2022-10-28T20:26:37.669Z,6.25
2022-10-28T20:29:07.007Z,6.97
2022-10-28T20:31:33.816Z,7.15
2022-10-28T20:34:04.155Z,6.90
2022-10-28T20:36:36.387Z,6.15
2022-10-28T20:39:14.546Z,6.68
2022-10-28T20:41:42.864Z,6.15
2022-10-28T20:44:09.673Z,6.93
2022-10-28T20:46:37.231Z,6.25
2022-10-28T20:49:04.927Z,6.40
2022-10-28T20:51:33.543Z,5.88
2022-10-28T20:54:00.552Z,6.72
2022-10-28T20:56:29.969Z,6.70
2022-10-28T20:59:00.334Z,5.88
2022-10-28T21:01:29.792Z,5.60
2022-10-28T21:04:01.453Z,6.20
2022-10-28T21:06:30.541Z,6.35
2022-10-28T21:08:58.786Z,6.22
2022-10-28T21:11:27.066Z,5.95
2022-10-28T21:13:59.431Z,6.53
2022-10-28T21:16:27.899Z,6.22
2022-10-28T21:18:55.135Z,6.05
2022-10-28T21:21:25.564Z,5.57
2022-10-28T21:23:52.656Z,6.28
2022-10-28T21:26:19.968Z,6.00
2022-10-28T21:28:51.814Z,6.28
2022-10-28T21:31:19.460Z,5.82
2022-10-28T21:33:46.602Z,6.15
2022-10-28T21:36:16.265Z,5.88
2022-10-28T21:38:43.228Z,5.80
2022-10-28T21:41:14.467Z,6.82
2022-10-28T21:43:43.025Z,5.53
2022-10-28T21:46:10.593Z,6.57
2022-10-28T21:48:38.381Z,5.95
2022-10-28T21:51:11.763Z,7.15
2022-10-28T21:53:41.625Z,6.78
2022-10-28T21:56:16.305Z,6.68
2022-10-28T21:58:44.360Z,7.82
2022-10-28T22:01:12.834Z,6.65
2022-10-28T22:03:39.993Z,15.10
2022-10-28T22:06:06.879Z,10.32
2022-10-28T22:08:34.008Z,9.07
2022-10-28T22:11:05.089Z,8.70
2022-10-28T22:13:34.734Z,7.82
2022-10-28T22:16:10.758Z,7.65
2022-10-28T22:18:38.653Z,6.95
2022-10-28T22:21:06.278Z,7.47
2022-10-28T22:23:33.478Z,7.47
2022-10-28T22:26:05.642Z,7.10
2022-10-28T22:28:32.636Z,6.80
2022-10-28T22:31:04.764Z,7.82
2022-10-28T22:33:37.856Z,6.82
2022-10-28T22:36:09.779Z,7.45
2022-10-28T22:38:36.632Z,6.43
2022-10-28T22:41:03.315Z,7.53
2022-10-28T22:43:30.272Z,6.63
2022-10-28T22:45:58.573Z,6.80
2022-10-28T22:48:28.239Z,6.40
2022-10-28T22:50:57.592Z,6.85
2022-10-28T22:53:25.214Z,7.05
2022-10-28T22:55:57.868Z,7.55
2022-10-28T22:58:26.814Z,7.55
2022-10-28T23:00:54.037Z,7.38
2022-10-28T23:03:21.562Z,7.35
2022-10-28T23:05:48.184Z,6.95
2022-10-28T23:08:15.924Z,7.43
2022-10-28T23:10:42.944Z,8.68
2022-10-28T23:13:13.719Z,7.75
2022-10-28T23:15:42.550Z,7.50
2022-10-28T23:18:09.348Z,7.07
2022-10-28T23:20:37.330Z,8.00
2022-10-28T23:23:04.173Z,7.75
2022-10-28T23:25:30.798Z,9.43
2022-10-28T23:27:57.997Z,8.13
2022-10-28T23:30:24.967Z,10.52
2022-10-28T23:32:57.071Z,7.47
2022-10-28T23:35:24.691Z,8.73
2022-10-28T23:37:54.163Z,7.90
2022-10-28T23:40:20.981Z,7.75
2022-10-28T23:42:47.746Z,7.90
2022-10-28T23:45:14.487Z,7.80
2022-10-28T23:47:41.160Z,6.90
2022-10-28T23:50:11.200Z,7.05
2022-10-28T23:52:37.812Z,6.32
2022-10-28T23:55:05.032Z,6.78
2022-10-28T23:57:31.632Z,5.97
